createdAt,value
2018-05-25T00:00:14.199Z,0
2018-05-25T00:01:14.105Z,0
2018-05-25T00:02:14.105Z,0
2018-05-25T00:03:14.049Z,0
2018-05-25T00:04:14.150Z,0
2018-05-25T00:05:14.145Z,0
2018-05-25T00:06:14.179Z,0
2018-05-25T00:07:14.109Z,0
2018-05-25T00:08:14.092Z,0
2018-05-25T00:09:14.192Z,0
2018-05-25T00:10:14.185Z,0
2018-05-25T00:11:14.128Z,0
2018-05-25T00:12:14.123Z,0
2018-05-25T00:13:14.210Z,0
2018-05-25T00:14:14.120Z,0
2018-05-25T00:15:14.158Z,0
2018-05-25T00:16:14.068Z,0
2018-05-25T00:17:14.192Z,0
2018-05-25T00:18:14.150Z,0
2018-05-25T00:19:14.126Z,0
2018-05-25T00:20:14.131Z,0
2018-05-25T00:21:14.139Z,0
2018-05-25T00:22:14.097Z,0
2018-05-25T00:23:14.082Z,0
2018-05-25T00:24:14.080Z,0
2018-05-25T00:25:14.117Z,0
2018-05-25T00:26:14.138Z,0
2018-05-25T00:27:14.098Z,0
2018-05-25T00:28:14.116Z,0
2018-05-25T00:29:14.088Z,0
2018-05-25T00:30:14.136Z,0
2018-05-25T00:31:14.188Z,0
2018-05-25T00:32:14.186Z,0
2018-05-25T00:33:14.182Z,0
2018-05-25T00:34:14.101Z,0
2018-05-25T00:35:14.146Z,0
2018-05-25T00:36:14.224Z,0
2018-05-25T00:37:14.220Z,0
2018-05-25T00:38:14.170Z,0
2018-05-25T00:39:14.171Z,0
2018-05-25T00:40:14.110Z,0
2018-05-25T00:41:14.172Z,0
2018-05-25T00:42:14.161Z,0
2018-05-25T00:43:14.101Z,0
2018-05-25T00:44:14.108Z,0
2018-05-25T00:45:14.177Z,0
2018-05-25T00:46:14.101Z,0
2018-05-25T00:47:14.103Z,0
2018-05-25T00:48:14.159Z,0
2018-05-25T00:49:14.094Z,0
2018-05-25T00:50:14.065Z,0
2018-05-25T00:51:14.151Z,0
2018-05-25T00:52:14.110Z,0
2018-05-25T00:53:14.169Z,0
2018-05-25T00:54:14.169Z,0
2018-05-25T00:55:14.116Z,0
2018-05-25T00:56:14.073Z,0
2018-05-25T00:57:14.083Z,0
2018-05-25T00:58:14.112Z,0
2018-05-25T00:59:14.115Z,0
2018-05-25T01:00:14.183Z,0
2018-05-25T01:01:14.113Z,0
2018-05-25T01:02:14.186Z,0
2018-05-25T01:03:14.208Z,0
2018-05-25T01:04:14.188Z,0
2018-05-25T01:05:14.138Z,0
2018-05-25T01:06:14.191Z,0
2018-05-25T01:07:14.186Z,0
2018-05-25T01:08:14.155Z,0
2018-05-25T01:09:14.183Z,0
2018-05-25T01:10:14.212Z,0
2018-05-25T01:11:14.130Z,0
2018-05-25T01:12:14.186Z,0
2018-05-25T01:13:14.111Z,0
2018-05-25T01:14:14.281Z,0
2018-05-25T01:15:14.230Z,0
2018-05-25T01:16:14.251Z,0
2018-05-25T01:17:14.218Z,0
2018-05-25T01:18:14.171Z,0
2018-05-25T01:19:14.155Z,0
2018-05-25T01:20:14.226Z,0
2018-05-25T01:21:14.130Z,0
2018-05-25T01:22:14.102Z,0
2018-05-25T01:23:14.194Z,0
2018-05-25T01:24:14.195Z,0
2018-05-25T01:25:14.138Z,0
2018-05-25T01:26:14.195Z,0
2018-05-25T01:27:14.228Z,0
2018-05-25T01:28:14.212Z,0
2018-05-25T01:29:14.125Z,0
2018-05-25T01:30:14.225Z,0
2018-05-25T01:31:14.222Z,0
2018-05-25T01:32:14.208Z,0
2018-05-25T01:33:14.180Z,0
2018-05-25T01:34:14.264Z,0
2018-05-25T01:35:14.263Z,0
2018-05-25T01:36:14.128Z,0
2018-05-25T01:37:14.236Z,0
2018-05-25T01:38:14.265Z,0
2018-05-25T01:39:14.123Z,0
2018-05-25T01:40:14.186Z,0
2018-05-25T01:41:14.228Z,0
2018-05-25T01:42:14.228Z,0
2018-05-25T01:43:14.236Z,0
2018-05-25T01:44:14.151Z,0
2018-05-25T01:45:14.131Z,0
2018-05-25T01:46:14.186Z,0
2018-05-25T01:47:14.273Z,0
2018-05-25T01:48:14.218Z,0
2018-05-25T01:49:14.216Z,0
2018-05-25T01:50:14.100Z,0
2018-05-25T01:51:14.219Z,0
2018-05-25T01:52:14.146Z,0
2018-05-25T01:53:14.235Z,0
2018-05-25T01:54:14.147Z,0
2018-05-25T01:55:14.216Z,0
2018-05-25T01:56:14.224Z,0
2018-05-25T01:57:14.224Z,0
2018-05-25T01:58:14.232Z,0
2018-05-25T01:59:14.226Z,0
2018-05-25T02:00:14.230Z,0
2018-05-25T02:01:14.113Z,0
2018-05-25T02:02:14.229Z,0
2018-05-25T02:03:14.195Z,0
2018-05-25T02:04:14.117Z,0
2018-05-25T02:05:14.155Z,0
2018-05-25T02:06:14.228Z,0
2018-05-25T02:07:14.171Z,0
2018-05-25T02:08:14.165Z,0
2018-05-25T02:09:14.203Z,0
2018-05-25T02:10:14.188Z,0
2018-05-25T02:11:14.293Z,0
2018-05-25T02:12:14.169Z,0
2018-05-25T02:13:14.210Z,0
2018-05-25T02:14:14.225Z,0
2018-05-25T02:15:14.148Z,0
2018-05-25T02:16:14.233Z,0
2018-05-25T02:17:14.199Z,0
2018-05-25T02:18:14.226Z,0
2018-05-25T02:19:14.226Z,0
2018-05-25T02:20:14.159Z,0
2018-05-25T02:21:14.159Z,0
2018-05-25T02:22:14.228Z,0
2018-05-25T02:23:14.159Z,0
2018-05-25T02:24:14.237Z,0
2018-05-25T02:25:14.160Z,0
2018-05-25T02:26:14.230Z,0
2018-05-25T02:27:14.160Z,0
2018-05-25T02:28:14.173Z,0
2018-05-25T02:29:14.247Z,0
2018-05-25T02:30:14.243Z,0
2018-05-25T02:31:14.196Z,4
2018-05-25T02:32:14.251Z,4
2018-05-25T02:33:14.258Z,4
2018-05-25T02:34:14.254Z,0
2018-05-25T02:35:14.253Z,0
2018-05-25T02:36:14.246Z,4
2018-05-25T02:37:14.271Z,4
2018-05-25T02:38:14.179Z,4
2018-05-25T02:39:14.252Z,4
2018-05-25T02:40:14.179Z,4
2018-05-25T02:41:14.260Z,8
2018-05-25T02:42:14.253Z,4
2018-05-25T02:43:14.182Z,8
2018-05-25T02:44:14.259Z,8
2018-05-25T02:45:14.204Z,12
2018-05-25T02:46:14.182Z,12
2018-05-25T02:47:14.146Z,16
2018-05-25T02:48:14.241Z,16
2018-05-25T02:49:14.244Z,20
2018-05-25T02:50:14.198Z,24
2018-05-25T02:51:14.173Z,28
2018-05-25T02:52:14.255Z,36
2018-05-25T02:53:14.204Z,40
2018-05-25T02:54:14.258Z,48
2018-05-25T02:55:14.179Z,52
2018-05-25T02:56:14.254Z,64
2018-05-25T02:57:14.201Z,72
2018-05-25T02:58:14.188Z,88
2018-05-25T02:59:14.260Z,100
2018-05-25T03:00:14.194Z,116
2018-05-25T03:01:14.263Z,132
2018-05-25T03:02:14.192Z,156
2018-05-25T03:03:14.291Z,176
2018-05-25T03:04:14.265Z,196
2018-05-25T03:05:14.195Z,216
2018-05-25T03:06:14.207Z,240
2018-05-25T03:07:14.269Z,264
2018-05-25T03:08:14.241Z,292
2018-05-25T03:09:14.287Z,320
2018-05-25T03:10:14.188Z,356
2018-05-25T03:11:14.299Z,400
2018-05-25T03:12:14.305Z,444
2018-05-25T03:13:14.308Z,488
2018-05-25T03:14:14.269Z,540
2018-05-25T03:15:14.294Z,588
2018-05-25T03:16:14.230Z,636
2018-05-25T03:17:14.334Z,684
2018-05-25T03:18:14.233Z,732
2018-05-25T03:19:14.189Z,776
2018-05-25T03:20:14.248Z,820
2018-05-25T03:21:14.240Z,852
2018-05-25T03:22:14.313Z,888
2018-05-25T03:23:14.254Z,928
2018-05-25T03:24:14.331Z,960
2018-05-25T03:25:14.336Z,992
2018-05-25T03:26:14.315Z,1016
2018-05-25T03:27:14.282Z,1056
2018-05-25T03:28:14.231Z,1112
2018-05-25T03:29:14.157Z,1176
2018-05-25T03:30:14.236Z,1248
2018-05-25T03:31:14.140Z,1336
2018-05-25T03:32:14.237Z,1424
2018-05-25T03:33:14.230Z,1532
2018-05-25T03:34:14.233Z,1628
2018-05-25T03:35:14.231Z,1692
2018-05-25T03:36:14.231Z,1740
2018-05-25T03:37:14.234Z,1820
2018-05-25T03:38:14.302Z,1928
2018-05-25T03:39:14.312Z,2076
2018-05-25T03:40:14.188Z,2248
2018-05-25T03:41:14.188Z,2424
2018-05-25T03:42:14.221Z,2592
2018-05-25T03:43:14.247Z,2760
2018-05-25T03:44:14.305Z,2972
2018-05-25T03:45:14.246Z,3096
2018-05-25T03:46:14.316Z,3188
2018-05-25T03:47:14.263Z,3284
2018-05-25T03:48:14.256Z,3404
2018-05-25T03:49:14.323Z,3476
2018-05-25T03:50:14.312Z,3516
2018-05-25T03:51:14.260Z,3576
2018-05-25T03:52:14.317Z,3676
2018-05-25T03:53:14.314Z,3808
2018-05-25T03:54:14.216Z,3896
2018-05-25T03:55:14.220Z,3952
2018-05-25T03:56:14.263Z,3912
2018-05-25T03:57:14.332Z,3924
2018-05-25T03:58:14.244Z,4020
2018-05-25T03:59:14.203Z,4112
2018-05-25T04:00:14.214Z,4148
2018-05-25T04:01:14.200Z,4164
2018-05-25T04:02:14.215Z,4228
2018-05-25T04:03:14.160Z,4272
2018-05-25T04:04:14.244Z,4256
2018-05-25T04:05:14.247Z,4204
2018-05-25T04:06:14.248Z,4236
2018-05-25T04:07:14.249Z,4324
2018-05-25T04:08:14.301Z,4436
2018-05-25T04:09:14.327Z,4696
2018-05-25T04:10:14.305Z,5044
2018-05-25T04:11:14.314Z,5348
2018-05-25T04:12:14.333Z,5580
2018-05-25T04:13:14.275Z,5796
2018-05-25T04:14:14.369Z,5956
2018-05-25T04:15:14.225Z,6180
2018-05-25T04:16:14.326Z,6504
2018-05-25T04:17:14.244Z,6844
2018-05-25T04:18:14.267Z,7132
2018-05-25T04:19:14.287Z,7364
2018-05-25T04:20:14.249Z,7644
2018-05-25T04:21:14.213Z,8080
2018-05-25T04:22:14.204Z,8556
2018-05-25T04:23:14.267Z,8972
2018-05-25T04:24:14.247Z,9308
2018-05-25T04:25:14.207Z,9872
2018-05-25T04:26:14.266Z,10460
2018-05-25T04:27:14.186Z,10752
2018-05-25T04:28:14.173Z,10884
2018-05-25T04:29:14.267Z,11236
2018-05-25T04:30:14.267Z,11712
2018-05-25T04:31:14.173Z,12252
2018-05-25T04:32:14.184Z,12704
2018-05-25T04:33:14.223Z,13112
2018-05-25T04:34:14.219Z,13664
2018-05-25T04:35:14.269Z,14748
2018-05-25T04:36:14.229Z,15352
2018-05-25T04:37:14.178Z,15520
2018-05-25T04:38:14.256Z,16000
2018-05-25T04:39:14.333Z,16964
2018-05-25T04:40:14.254Z,17836
2018-05-25T04:41:14.258Z,18692
2018-05-25T04:42:14.328Z,19196
2018-05-25T04:43:14.386Z,19644
2018-05-25T04:44:14.328Z,20072
2018-05-25T04:45:14.332Z,20032
2018-05-25T04:46:14.257Z,19632
2018-05-25T04:47:14.325Z,19816
2018-05-25T04:48:14.332Z,20120
2018-05-25T04:49:14.259Z,20372
2018-05-25T04:50:14.332Z,20628
2018-05-25T04:51:14.287Z,20736
2018-05-25T04:52:14.333Z,20724
2018-05-25T04:53:14.332Z,20632
2018-05-25T04:54:14.332Z,20056
2018-05-25T04:55:14.335Z,19548
2018-05-25T04:56:14.335Z,19428
2018-05-25T04:57:14.265Z,19684
2018-05-25T04:58:14.270Z,19772
2018-05-25T04:59:14.288Z,20028
2018-05-25T05:00:14.339Z,19900
2018-05-25T05:01:14.280Z,19728
2018-05-25T05:02:14.271Z,20628
2018-05-25T05:03:14.331Z,20972
2018-05-25T05:04:14.271Z,21376
2018-05-25T05:05:14.339Z,22012
2018-05-25T05:06:14.276Z,22752
2018-05-25T05:07:14.270Z,23008
2018-05-25T05:08:14.341Z,23296
2018-05-25T05:09:14.358Z,23424
2018-05-25T05:10:14.278Z,23360
2018-05-25T05:11:14.346Z,23168
2018-05-25T05:12:14.345Z,23040
2018-05-25T05:13:14.279Z,22848
2018-05-25T05:14:14.346Z,22552
2018-05-25T05:15:14.242Z,22384
2018-05-25T05:16:14.308Z,22340
2018-05-25T05:17:14.348Z,22480
2018-05-25T05:18:14.367Z,23072
2018-05-25T05:19:14.383Z,23392
2018-05-25T05:20:14.290Z,23616
2018-05-25T05:21:14.374Z,23776
2018-05-25T05:22:14.373Z,23616
2018-05-25T05:23:14.373Z,23424
2018-05-25T05:24:14.291Z,23328
2018-05-25T05:25:14.381Z,23360
2018-05-25T05:26:14.317Z,23648
2018-05-25T05:27:14.373Z,23872
2018-05-25T05:28:14.287Z,24160
2018-05-25T05:29:14.287Z,24480
2018-05-25T05:30:14.358Z,24992
2018-05-25T05:31:14.288Z,25792
2018-05-25T05:32:14.304Z,26688
2018-05-25T05:33:14.358Z,26976
2018-05-25T05:34:14.360Z,25536
2018-05-25T05:35:14.307Z,25632
2018-05-25T05:36:14.365Z,27264
2018-05-25T05:37:14.359Z,26400
2018-05-25T05:38:14.326Z,25024
2018-05-25T05:39:14.303Z,24064
2018-05-25T05:40:14.324Z,23680
2018-05-25T05:41:14.367Z,23712
2018-05-25T05:42:14.324Z,23712
2018-05-25T05:43:14.305Z,23328
2018-05-25T05:44:14.398Z,23360
2018-05-25T05:45:14.304Z,23552
2018-05-25T05:46:14.385Z,23744
2018-05-25T05:47:14.347Z,23904
2018-05-25T05:48:14.285Z,24032
2018-05-25T05:49:14.363Z,24416
2018-05-25T05:50:14.271Z,24960
2018-05-25T05:51:14.447Z,25312
2018-05-25T05:52:14.364Z,25312
2018-05-25T05:53:14.366Z,25056
2018-05-25T05:54:14.291Z,24736
2018-05-25T05:55:14.305Z,24512
2018-05-25T05:56:14.371Z,24320
2018-05-25T05:57:14.290Z,24096
2018-05-25T05:58:14.307Z,23936
2018-05-25T05:59:14.378Z,24000
2018-05-25T06:00:14.376Z,24384
2018-05-25T06:01:14.314Z,25024
2018-05-25T06:02:14.381Z,25888
2018-05-25T06:03:14.355Z,26688
2018-05-25T06:04:14.382Z,27616
2018-05-25T06:05:14.383Z,28544
2018-05-25T06:06:14.382Z,29472
2018-05-25T06:07:14.385Z,30080
2018-05-25T06:08:14.323Z,30144
2018-05-25T06:09:14.380Z,30880
2018-05-25T06:10:14.420Z,33120
2018-05-25T06:11:14.345Z,36640
2018-05-25T06:12:14.346Z,32736
2018-05-25T06:13:14.444Z,34016
2018-05-25T06:14:14.420Z,36320
2018-05-25T06:15:14.405Z,37568
2018-05-25T06:16:14.415Z,37152
2018-05-25T06:17:14.459Z,46528
2018-05-25T06:18:14.379Z,36928
2018-05-25T06:19:14.422Z,39328
2018-05-25T06:20:14.363Z,36256
2018-05-25T06:21:14.321Z,35072
2018-05-25T06:22:14.410Z,34528
2018-05-25T06:23:14.389Z,34528
2018-05-25T06:24:14.322Z,34784
2018-05-25T06:25:14.393Z,35136
2018-05-25T06:26:14.390Z,35904
2018-05-25T06:27:14.330Z,35200
2018-05-25T06:28:14.411Z,35232
2018-05-25T06:29:14.394Z,35840
2018-05-25T06:30:14.363Z,37024
2018-05-25T06:31:14.334Z,38560
2018-05-25T06:32:14.415Z,39776
2018-05-25T06:33:14.303Z,40416
2018-05-25T06:34:14.375Z,43584
2018-05-25T06:35:14.372Z,41600
2018-05-25T06:36:14.325Z,61664
2018-05-25T06:37:14.416Z,70432
2018-05-25T06:38:14.397Z,54656
2018-05-25T06:39:14.322Z,70048
2018-05-25T06:40:14.358Z,58240
2018-05-25T06:41:14.404Z,50752
2018-05-25T06:42:14.481Z,68832
2018-05-25T06:43:14.443Z,72992
2018-05-25T06:44:14.325Z,53216
2018-05-25T06:45:14.304Z,45024
2018-05-25T06:46:14.429Z,46976
2018-05-25T06:47:14.369Z,62720
2018-05-25T06:48:14.328Z,57504
2018-05-25T06:49:14.410Z,70016
2018-05-25T06:50:14.344Z,62624
2018-05-25T06:51:14.385Z,60480
2018-05-25T06:52:14.305Z,58656
2018-05-25T06:53:14.408Z,53568
2018-05-25T06:54:14.385Z,60224
2018-05-25T06:55:14.313Z,66112
2018-05-25T06:56:14.450Z,61632
2018-05-25T06:57:14.318Z,53280
2018-05-25T06:58:14.373Z,52608
2018-05-25T06:59:14.419Z,48896
2018-05-25T07:00:14.412Z,53920
2018-05-25T07:01:14.439Z,53536
2018-05-25T07:02:14.347Z,45120
2018-05-25T07:03:14.422Z,44160
2018-05-25T07:04:14.351Z,43584
2018-05-25T07:05:14.356Z,67520
2018-05-25T07:06:14.352Z,44672
2018-05-25T07:07:14.391Z,44576
2018-05-25T07:08:14.354Z,53952
2018-05-25T07:09:14.356Z,50240
2018-05-25T07:10:14.295Z,78912
2018-05-25T07:11:14.343Z,85696
2018-05-25T07:12:14.398Z,83456
2018-05-25T07:13:14.348Z,86976
2018-05-25T07:14:14.347Z,80480
2018-05-25T07:15:14.371Z,83104
2018-05-25T07:16:14.410Z,77280
2018-05-25T07:17:14.311Z,59296
2018-05-25T07:18:14.313Z,61984
2018-05-25T07:19:14.425Z,57184
2018-05-25T07:20:14.327Z,58752
2018-05-25T07:21:14.427Z,65408
2018-05-25T07:22:14.474Z,81792
2018-05-25T07:23:14.453Z,91456
2018-05-25T07:24:14.349Z,96896
2018-05-25T07:25:14.372Z,110880
2018-05-25T07:26:14.451Z,64352
2018-05-25T07:27:14.389Z,116096
2018-05-25T07:28:14.453Z,113696
2018-05-25T07:29:14.462Z,114080
2018-05-25T07:30:14.333Z,96960
2018-05-25T07:31:14.467Z,104832
2018-05-25T07:32:14.444Z,107488
2018-05-25T07:33:14.430Z,110016
2018-05-25T07:34:14.458Z,111328
2018-05-25T07:35:14.406Z,110848
2018-05-25T07:36:14.457Z,115744
2018-05-25T07:37:14.391Z,101376
2018-05-25T07:38:14.453Z,73664
2018-05-25T07:39:14.475Z,88480
2018-05-25T07:40:14.479Z,93728
2018-05-25T07:41:14.420Z,68864
2018-05-25T07:42:14.506Z,78112
2018-05-25T07:43:14.402Z,90784
2018-05-25T07:44:14.424Z,114560
2018-05-25T07:45:14.400Z,73504
2018-05-25T07:46:14.417Z,116736
2018-05-25T07:47:14.411Z,129408
2018-05-25T07:48:14.345Z,131136
2018-05-25T07:49:14.411Z,131392
2018-05-25T07:50:14.475Z,121856
2018-05-25T07:51:14.475Z,125184
2018-05-25T07:52:14.406Z,121728
2018-05-25T07:53:14.422Z,130208
2018-05-25T07:54:14.463Z,135104
2018-05-25T07:55:14.372Z,137088
2018-05-25T07:56:14.421Z,129568
2018-05-25T07:57:14.409Z,99712
2018-05-25T07:58:14.474Z,106112
2018-05-25T07:59:14.477Z,126112
2018-05-25T08:00:14.383Z,77888
2018-05-25T08:01:14.424Z,87328
2018-05-25T08:02:14.374Z,127104
2018-05-25T08:03:14.414Z,125824
2018-05-25T08:04:14.477Z,111328
2018-05-25T08:05:14.420Z,77632
2018-05-25T08:06:14.483Z,99264
2018-05-25T08:07:14.476Z,127520
2018-05-25T08:08:14.453Z,130336
2018-05-25T08:09:14.325Z,76896
2018-05-25T08:10:14.443Z,63648
2018-05-25T08:11:14.362Z,58560
2018-05-25T08:12:14.441Z,57696
2018-05-25T08:13:14.445Z,58080
2018-05-25T08:14:14.370Z,135392
2018-05-25T08:15:14.349Z,134656
2018-05-25T08:16:14.369Z,123104
2018-05-25T08:17:14.455Z,79712
2018-05-25T08:18:14.416Z,95296
2018-05-25T08:19:14.486Z,99680
2018-05-25T08:20:14.461Z,81888
2018-05-25T08:21:14.477Z,97472
2018-05-25T08:22:14.506Z,86848
2018-05-25T08:23:14.470Z,79296
2018-05-25T08:24:14.386Z,72576
2018-05-25T08:25:14.490Z,80800
2018-05-25T08:26:14.420Z,86208
2018-05-25T08:27:14.431Z,100576
2018-05-25T08:28:14.501Z,127136
2018-05-25T08:29:14.500Z,130144
2018-05-25T08:30:14.528Z,100256
2018-05-25T08:31:14.489Z,88736
2018-05-25T08:32:14.449Z,104160
2018-05-25T08:33:14.425Z,128640
2018-05-25T08:34:14.413Z,122080
2018-05-25T08:35:14.441Z,118720
2018-05-25T08:36:14.466Z,138240
2018-05-25T08:37:14.381Z,111712
2018-05-25T08:38:14.454Z,141984
2018-05-25T08:39:14.433Z,79840
2018-05-25T08:40:14.510Z,89952
2018-05-25T08:41:14.448Z,98624
2018-05-25T08:42:14.612Z,102208
2018-05-25T08:43:14.488Z,101568
2018-05-25T08:44:14.440Z,129472
2018-05-25T08:45:14.439Z,148928
2018-05-25T08:46:14.541Z,160800
2018-05-25T08:47:14.502Z,165856
2018-05-25T08:48:14.490Z,167712
2018-05-25T08:49:14.443Z,174496
2018-05-25T08:50:14.515Z,174464
2018-05-25T08:51:14.394Z,169888
2018-05-25T08:52:14.389Z,171200
2018-05-25T08:53:14.461Z,144128
2018-05-25T08:54:14.406Z,150624
2018-05-25T08:55:14.500Z,117504
2018-05-25T08:56:14.465Z,110464
2018-05-25T08:57:14.516Z,90240
2018-05-25T08:58:14.460Z,127712
2018-05-25T08:59:14.459Z,87040
2018-05-25T09:00:14.389Z,85120
2018-05-25T09:01:14.572Z,101088
2018-05-25T09:02:14.459Z,83104
2018-05-25T09:03:14.519Z,56448
2018-05-25T09:04:14.521Z,49952
2018-05-25T09:05:14.451Z,46752
2018-05-25T09:06:14.415Z,44992
2018-05-25T09:07:14.452Z,44352
2018-05-25T09:08:14.468Z,46080
2018-05-25T09:09:14.531Z,48192
2018-05-25T09:10:14.460Z,50464
2018-05-25T09:11:14.472Z,52576
2018-05-25T09:12:14.524Z,53472
2018-05-25T09:13:14.499Z,53248
2018-05-25T09:14:14.472Z,52704
2018-05-25T09:15:14.478Z,52352
2018-05-25T09:16:14.476Z,52640
2018-05-25T09:17:14.499Z,53440
2018-05-25T09:18:14.477Z,54848
2018-05-25T09:19:14.436Z,56800
2018-05-25T09:20:14.503Z,59136
2018-05-25T09:21:14.439Z,60128
2018-05-25T09:22:14.502Z,60192
2018-05-25T09:23:14.502Z,60288
2018-05-25T09:24:14.507Z,60288
2018-05-25T09:25:14.440Z,60160
2018-05-25T09:26:14.507Z,59776
2018-05-25T09:27:14.512Z,59264
2018-05-25T09:28:14.440Z,58464
2018-05-25T09:29:14.415Z,57856
2018-05-25T09:30:14.471Z,57856
2018-05-25T09:31:14.533Z,57152
2018-05-25T09:32:14.519Z,56480
2018-05-25T09:33:14.491Z,55968
2018-05-25T09:34:14.447Z,55488
2018-05-25T09:35:14.486Z,54976
2018-05-25T09:36:14.612Z,54816
2018-05-25T09:37:14.471Z,54880
2018-05-25T09:38:14.527Z,55264
2018-05-25T09:39:14.438Z,56032
2018-05-25T09:40:14.535Z,57312
2018-05-25T09:41:14.519Z,58752
2018-05-25T09:42:14.491Z,59616
2018-05-25T09:43:14.532Z,59680
2018-05-25T09:44:14.542Z,59104
2018-05-25T09:45:14.539Z,57920
2018-05-25T09:46:14.542Z,56192
2018-05-25T09:47:14.474Z,54304
2018-05-25T09:48:14.556Z,52448
2018-05-25T09:49:14.512Z,50720
2018-05-25T09:50:14.455Z,49024
2018-05-25T09:51:14.518Z,47680
2018-05-25T09:52:14.412Z,46528
2018-05-25T09:53:14.408Z,45536
2018-05-25T09:54:14.431Z,44896
2018-05-25T09:55:14.508Z,44448
2018-05-25T09:56:14.515Z,44160
2018-05-25T09:57:14.433Z,43808
2018-05-25T09:58:14.468Z,43744
2018-05-25T09:59:14.485Z,43744
2018-05-25T10:00:14.553Z,43808
2018-05-25T10:01:14.503Z,43584
2018-05-25T10:02:14.498Z,43936
2018-05-25T10:03:14.514Z,44224
2018-05-25T10:04:14.511Z,44416
2018-05-25T10:05:14.587Z,44832
2018-05-25T10:06:14.433Z,45312
2018-05-25T10:07:14.536Z,45280
2018-05-25T10:08:14.564Z,44288
2018-05-25T10:09:14.572Z,42688
2018-05-25T10:10:14.571Z,40640
2018-05-25T10:11:14.455Z,38656
2018-05-25T10:12:14.500Z,36928
2018-05-25T10:13:14.569Z,35488
2018-05-25T10:14:14.436Z,34464
2018-05-25T10:15:14.559Z,33952
2018-05-25T10:16:14.581Z,33856
2018-05-25T10:17:14.501Z,34272
2018-05-25T10:18:14.573Z,34816
2018-05-25T10:19:14.477Z,35008
2018-05-25T10:20:14.545Z,34816
2018-05-25T10:21:14.477Z,34656
2018-05-25T10:22:14.477Z,34848
2018-05-25T10:23:14.550Z,35360
2018-05-25T10:24:14.478Z,36192
2018-05-25T10:25:14.611Z,36992
2018-05-25T10:26:14.480Z,37152
2018-05-25T10:27:14.547Z,36256
2018-05-25T10:28:14.548Z,34880
2018-05-25T10:29:14.476Z,33248
2018-05-25T10:30:14.514Z,31488
2018-05-25T10:31:14.452Z,29760
2018-05-25T10:32:14.545Z,28320
2018-05-25T10:33:14.531Z,27008
2018-05-25T10:34:14.516Z,26240
2018-05-25T10:35:14.479Z,25856
2018-05-25T10:36:14.413Z,25792
2018-05-25T10:37:14.434Z,25632
2018-05-25T10:38:14.458Z,25056
2018-05-25T10:39:14.550Z,24128
2018-05-25T10:40:14.456Z,23072
2018-05-25T10:41:14.566Z,22208
2018-05-25T10:42:14.584Z,21792
2018-05-25T10:43:14.631Z,21888
2018-05-25T10:44:14.575Z,22592
2018-05-25T10:45:14.572Z,23744
2018-05-25T10:46:14.515Z,25280
2018-05-25T10:47:14.457Z,27072
2018-05-25T10:48:14.531Z,28864
2018-05-25T10:49:14.544Z,30560
2018-05-25T10:50:14.508Z,31840
2018-05-25T10:51:14.536Z,32416
2018-05-25T10:52:14.562Z,32256
2018-05-25T10:53:14.488Z,31744
2018-05-25T10:54:14.545Z,31232
2018-05-25T10:55:14.567Z,31104
2018-05-25T10:56:14.498Z,31424
2018-05-25T10:57:14.553Z,32160
2018-05-25T10:58:14.443Z,33408
2018-05-25T10:59:14.538Z,35296
2018-05-25T11:00:14.562Z,37440
2018-05-25T11:01:14.595Z,39456
2018-05-25T11:02:14.597Z,41056
2018-05-25T11:03:14.533Z,42240
2018-05-25T11:04:14.596Z,42880
2018-05-25T11:05:14.493Z,43488
2018-05-25T11:06:14.481Z,44480
2018-05-25T11:07:14.552Z,47136
2018-05-25T11:08:14.601Z,48768
2018-05-25T11:09:14.540Z,51776
2018-05-25T11:10:14.591Z,53056
2018-05-25T11:11:14.537Z,55040
2018-05-25T11:12:14.477Z,61184
2018-05-25T11:13:14.620Z,70272
2018-05-25T11:14:14.545Z,90176
2018-05-25T11:15:14.601Z,99392
2018-05-25T11:16:14.555Z,122880
2018-05-25T11:17:14.480Z,104416
2018-05-25T11:18:14.546Z,115008
2018-05-25T11:19:14.592Z,121632
2018-05-25T11:20:14.579Z,128448
2018-05-25T11:21:14.517Z,134784
2018-05-25T11:22:14.513Z,105952
2018-05-25T11:23:14.609Z,142272
2018-05-25T11:24:14.583Z,95520
2018-05-25T11:25:14.583Z,102176
2018-05-25T11:26:14.584Z,83872
2018-05-25T11:27:14.516Z,92480
2018-05-25T11:28:14.590Z,84608
2018-05-25T11:29:14.585Z,77408
2018-05-25T11:30:14.567Z,64576
2018-05-25T11:31:14.495Z,55712
2018-05-25T11:32:14.662Z,49376
2018-05-25T11:33:14.623Z,45120
2018-05-25T11:34:14.530Z,41760
2018-05-25T11:35:14.618Z,38976
2018-05-25T11:36:14.621Z,36224
2018-05-25T11:37:14.512Z,33472
2018-05-25T11:38:14.554Z,31104
2018-05-25T11:39:14.592Z,29568
2018-05-25T11:40:14.558Z,28416
2018-05-25T11:41:14.623Z,27424
2018-05-25T11:42:14.562Z,26592
2018-05-25T11:43:14.610Z,25920
2018-05-25T11:44:14.571Z,25472
2018-05-25T11:45:14.555Z,24928
2018-05-25T11:46:14.620Z,24224
2018-05-25T11:47:14.560Z,23616
2018-05-25T11:48:14.552Z,22976
2018-05-25T11:49:14.486Z,22560
2018-05-25T11:50:14.602Z,22048
2018-05-25T11:51:14.552Z,21600
2018-05-25T11:52:14.536Z,21376
2018-05-25T11:53:14.596Z,21536
2018-05-25T11:54:14.571Z,21856
2018-05-25T11:55:14.568Z,22208
2018-05-25T11:56:14.600Z,22784
2018-05-25T11:57:14.475Z,24096
2018-05-25T11:58:14.513Z,25408
2018-05-25T11:59:14.679Z,26560
2018-05-25T12:00:14.579Z,27232
2018-05-25T12:01:14.623Z,27936
2018-05-25T12:02:14.576Z,28384
2018-05-25T12:03:14.572Z,28320
2018-05-25T12:04:14.592Z,28288
2018-05-25T12:05:14.573Z,28192
2018-05-25T12:06:14.571Z,29056
2018-05-25T12:07:14.568Z,30656
2018-05-25T12:08:14.568Z,33184
2018-05-25T12:09:14.633Z,36192
2018-05-25T12:10:14.519Z,39168
2018-05-25T12:11:14.646Z,42464
2018-05-25T12:12:14.653Z,45216
2018-05-25T12:13:14.615Z,46880
2018-05-25T12:14:14.615Z,48192
2018-05-25T12:15:14.544Z,48192
2018-05-25T12:16:14.641Z,49088
2018-05-25T12:17:14.653Z,53632
2018-05-25T12:18:14.523Z,58304
2018-05-25T12:19:14.619Z,60032
2018-05-25T12:20:14.617Z,58560
2018-05-25T12:21:14.620Z,53632
2018-05-25T12:22:14.556Z,50848
2018-05-25T12:23:14.557Z,50016
2018-05-25T12:24:14.510Z,50528
2018-05-25T12:25:14.551Z,50176
2018-05-25T12:26:14.624Z,49728
2018-05-25T12:27:14.556Z,48896
2018-05-25T12:28:14.626Z,47232
2018-05-25T12:29:14.628Z,45856
2018-05-25T12:30:14.559Z,44608
2018-05-25T12:31:14.509Z,43552
2018-05-25T12:32:14.627Z,43360
2018-05-25T12:33:14.630Z,44320
2018-05-25T12:34:14.596Z,45824
2018-05-25T12:35:14.631Z,47136
2018-05-25T12:36:14.632Z,48480
2018-05-25T12:37:14.563Z,50720
2018-05-25T12:38:14.631Z,52640
2018-05-25T12:39:14.632Z,54464
2018-05-25T12:40:14.662Z,55968
2018-05-25T12:41:14.660Z,57120
2018-05-25T12:42:14.847Z,58400
2018-05-25T12:43:14.596Z,59456
2018-05-25T12:44:14.569Z,60160
2018-05-25T12:45:14.652Z,61088
2018-05-25T12:46:14.667Z,62496
2018-05-25T12:47:14.602Z,68064
2018-05-25T12:48:14.662Z,64960
2018-05-25T12:49:14.665Z,66496
2018-05-25T12:50:14.673Z,67072
2018-05-25T12:51:14.571Z,65216
2018-05-25T12:52:14.639Z,65408
2018-05-25T12:53:14.574Z,66496
2018-05-25T12:54:14.575Z,67008
2018-05-25T12:55:14.645Z,67808
2018-05-25T12:56:14.578Z,68768
2018-05-25T12:57:14.641Z,71680
2018-05-25T12:58:14.575Z,69568
2018-05-25T12:59:14.643Z,73312
2018-05-25T13:00:14.618Z,72640
2018-05-25T13:01:14.585Z,70848
2018-05-25T13:02:14.646Z,69920
2018-05-25T13:03:14.579Z,71136
2018-05-25T13:04:14.740Z,71968
2018-05-25T13:05:14.578Z,85376
2018-05-25T13:06:14.649Z,75136
2018-05-25T13:07:14.584Z,77376
2018-05-25T13:08:14.535Z,78848
2018-05-25T13:09:14.583Z,79616
2018-05-25T13:10:14.663Z,76576
2018-05-25T13:11:14.742Z,73728
2018-05-25T13:12:14.651Z,72736
2018-05-25T13:13:14.586Z,72576
2018-05-25T13:14:14.653Z,72864
2018-05-25T13:15:14.586Z,71840
2018-05-25T13:16:14.588Z,71200